createdAt,value
2023-02-01T00:00:38.143Z,6.20
2023-02-01T00:03:06.925Z,6.30
2023-02-01T00:05:35.496Z,6.20
2023-02-01T00:08:03.149Z,6.30
2023-02-01T00:10:30.424Z,6.30
2023-02-01T00:12:57.694Z,6.30
2023-02-01T00:15:25.222Z,6.30
2023-02-01T00:17:57.218Z,6.30
2023-02-01T00:20:24.660Z,6.30
2023-02-01T00:22:52.067Z,6.30
2023-02-01T00:25:19.484Z,6.30
2023-02-01T00:27:51.356Z,6.30
2023-02-01T00:30:19.808Z,6.30
2023-02-01T00:32:47.756Z,6.30
2023-02-01T00:35:15.130Z,6.30
2023-02-01T00:37:42.584Z,6.30
2023-02-01T00:40:10.731Z,6.40
2023-02-01T00:42:38.140Z,6.40
2023-02-01T00:45:05.958Z,6.40
2023-02-01T00:47:33.473Z,6.40
2023-02-01T00:50:00.708Z,6.40
2023-02-01T00:52:28.507Z,6.40
2023-02-01T00:54:55.822Z,6.50
2023-02-01T00:57:23.515Z,6.50
2023-02-01T00:59:50.887Z,6.50
2023-02-01T01:02:18.214Z,6.50
2023-02-01T01:04:45.686Z,6.50
2023-02-01T01:07:12.973Z,6.50
2023-02-01T01:09:40.367Z,6.50
2023-02-01T01:12:07.637Z,6.60
2023-02-01T01:14:35.014Z,6.50
2023-02-01T01:17:02.379Z,6.60
2023-02-01T01:19:29.714Z,6.60
2023-02-01T01:21:57.046Z,6.60
2023-02-01T01:24:24.367Z,6.60
2023-02-01T01:26:51.644Z,6.60
2023-02-01T01:29:18.951Z,6.60
2023-02-01T01:31:46.543Z,6.60
2023-02-01T01:34:14.075Z,6.70
2023-02-01T01:36:41.519Z,6.60
2023-02-01T01:39:09.155Z,6.70
2023-02-01T01:41:36.802Z,6.70
2023-02-01T01:44:55.426Z,6.70
2023-02-01T01:47:23.328Z,6.70
2023-02-01T01:49:51.569Z,6.60
2023-02-01T01:52:20.100Z,6.60
2023-02-01T01:54:51.027Z,6.60
2023-02-01T01:57:32.603Z,6.60
2023-02-01T02:00:21.712Z,6.60
2023-02-01T02:02:57.880Z,6.60
2023-02-01T02:05:25.855Z,6.60
2023-02-01T02:07:58.166Z,6.60
2023-02-01T02:10:45.581Z,6.60
2023-02-01T02:13:14.636Z,6.60
2023-02-01T02:15:51.852Z,6.60
2023-02-01T02:18:42.777Z,6.60
2023-02-01T02:21:10.404Z,6.50
2023-02-01T02:23:59.690Z,6.50
2023-02-01T02:26:39.135Z,6.50
2023-02-01T02:29:26.261Z,6.50
2023-02-01T02:32:02.828Z,6.50
2023-02-01T02:34:41.374Z,6.60
2023-02-01T02:37:32.424Z,6.60
2023-02-01T02:40:25.317Z,6.60
2023-02-01T02:43:50.735Z,6.60
2023-02-01T02:46:43.815Z,6.60
2023-02-01T02:49:14.140Z,6.60
2023-02-01T02:52:19.225Z,6.60
2023-02-01T02:54:52.919Z,6.60
2023-02-01T02:57:58.458Z,6.60
2023-02-01T03:00:51.558Z,6.60
2023-02-01T03:03:37.424Z,6.60
2023-02-01T03:06:10.213Z,6.60
2023-02-01T03:08:38.257Z,6.60
2023-02-01T03:11:11.053Z,6.60
2023-02-01T03:13:59.060Z,6.60
2023-02-01T03:16:35.822Z,6.60
2023-02-01T03:19:23.144Z,6.60
2023-02-01T03:22:05.448Z,6.60
2023-02-01T03:24:39.407Z,6.60
2023-02-01T03:27:15.970Z,6.50
2023-02-01T03:29:59.241Z,6.50
2023-02-01T03:32:26.868Z,6.50
2023-02-01T03:34:55.291Z,6.60
2023-02-01T03:37:29.413Z,6.60
2023-02-01T03:40:09.510Z,6.60
2023-02-01T03:42:41.841Z,6.50
2023-02-01T03:45:15.067Z,6.50
2023-02-01T03:47:47.289Z,6.60
2023-02-01T03:50:18.732Z,6.60
2023-02-01T03:53:03.076Z,6.60
2023-02-01T03:55:32.650Z,6.70
2023-02-01T03:58:14.653Z,6.70
2023-02-01T04:00:47.188Z,6.70
2023-02-01T04:03:14.811Z,6.70
2023-02-01T04:05:42.453Z,6.70
2023-02-01T04:08:10.930Z,6.70
2023-02-01T04:10:38.467Z,6.80
2023-02-01T04:13:06.342Z,6.80
2023-02-01T04:15:34.819Z,6.80
2023-02-01T04:18:02.759Z,6.80
2023-02-01T04:20:30.231Z,6.80
2023-02-01T04:22:57.836Z,6.80
2023-02-01T04:25:25.265Z,6.80
2023-02-01T04:27:53.186Z,6.90
2023-02-01T04:30:20.734Z,6.90
2023-02-01T04:32:48.102Z,6.90
2023-02-01T04:35:15.482Z,6.90
2023-02-01T04:37:43.128Z,7.00
2023-02-01T04:40:11.187Z,7.00
2023-02-01T04:42:38.674Z,7.10
2023-02-01T04:45:07.010Z,7.10
2023-02-01T04:47:34.307Z,7.10
2023-02-01T04:50:01.877Z,7.10
2023-02-01T04:52:29.116Z,7.10
2023-02-01T04:54:59.257Z,7.10
2023-02-01T04:57:27.431Z,7.10
2023-02-01T04:59:54.698Z,7.10
2023-02-01T05:02:22.360Z,7.20
2023-02-01T05:04:50.095Z,7.20
2023-02-01T05:07:17.773Z,7.20
2023-02-01T05:09:45.458Z,7.20
2023-02-01T05:12:32.325Z,7.20
2023-02-01T05:14:59.846Z,7.20
2023-02-01T05:17:27.499Z,7.20
2023-02-01T05:19:54.912Z,7.20
2023-02-01T05:22:22.277Z,7.30
2023-02-01T05:24:49.699Z,7.30
2023-02-01T05:27:17.387Z,7.40
2023-02-01T05:29:44.821Z,7.40
2023-02-01T05:32:22.166Z,7.40
2023-02-01T05:34:50.614Z,7.40
2023-02-01T05:37:18.036Z,7.40
2023-02-01T05:39:45.603Z,7.40
2023-02-01T05:42:13.138Z,7.40
2023-02-01T05:44:40.564Z,7.40
2023-02-01T05:47:08.426Z,7.40
2023-02-01T05:49:35.886Z,7.40
2023-02-01T05:52:03.698Z,7.40
2023-02-01T05:54:31.304Z,7.40
2023-02-01T05:56:58.572Z,7.40
2023-02-01T05:59:26.271Z,7.40
2023-02-01T06:01:53.754Z,7.50
2023-02-01T06:04:21.162Z,7.50
2023-02-01T06:06:51.560Z,7.50
2023-02-01T06:09:19.346Z,7.50
2023-02-01T06:11:46.653Z,7.60
2023-02-01T06:14:14.178Z,7.50
2023-02-01T06:16:41.629Z,7.50
2023-02-01T06:19:09.902Z,7.50
2023-02-01T06:21:37.909Z,7.50
2023-02-01T06:24:05.340Z,7.60
2023-02-01T06:26:32.790Z,7.60
2023-02-01T06:29:00.115Z,7.60
2023-02-01T06:31:27.651Z,7.60
2023-02-01T06:33:55.339Z,7.70
2023-02-01T06:36:23.264Z,7.70
2023-02-01T06:38:50.921Z,7.70
2023-02-01T06:41:18.344Z,7.70
2023-02-01T06:43:47.543Z,7.80
2023-02-01T06:46:16.045Z,7.80
2023-02-01T06:48:43.517Z,7.80
2023-02-01T06:51:27.284Z,7.90
2023-02-01T06:53:55.253Z,8.00
2023-02-01T06:56:22.982Z,8.10
2023-02-01T06:58:50.561Z,8.20
2023-02-01T07:01:18.394Z,8.20
2023-02-01T07:03:52.438Z,8.20
2023-02-01T07:06:20.392Z,8.20
2023-02-01T07:08:47.690Z,8.30
2023-02-01T07:11:17.097Z,8.30
2023-02-01T07:13:45.049Z,8.30
2023-02-01T07:16:16.349Z,8.30
2023-02-01T07:18:44.261Z,8.30
2023-02-01T07:21:12.055Z,8.30
2023-02-01T07:23:39.676Z,8.20
2023-02-01T07:26:10.578Z,8.30
2023-02-01T07:28:38.778Z,8.30
2023-02-01T07:31:07.937Z,8.30
2023-02-01T07:33:35.541Z,8.30
2023-02-01T07:36:05.829Z,8.40
2023-02-01T07:38:33.824Z,8.40
2023-02-01T07:41:02.958Z,8.40
2023-02-01T07:43:30.901Z,8.40
2023-02-01T07:45:58.729Z,8.40
2023-02-01T07:48:27.121Z,8.40
2023-02-01T07:51:03.129Z,8.50
2023-02-01T07:53:31.457Z,8.50
2023-02-01T07:55:58.938Z,8.50
2023-02-01T07:58:27.360Z,8.50
2023-02-01T08:01:14.380Z,8.60
2023-02-01T08:03:42.333Z,8.60
2023-02-01T08:06:10.083Z,8.70
2023-02-01T08:08:37.707Z,8.80
2023-02-01T08:11:07.275Z,8.80
2023-02-01T08:13:36.229Z,8.80
2023-02-01T08:16:06.190Z,8.90
2023-02-01T08:18:34.444Z,8.90
2023-02-01T08:21:23.987Z,8.90
2023-02-01T08:23:51.647Z,8.80
2023-02-01T08:26:22.398Z,8.80
2023-02-01T08:28:53.212Z,8.90
2023-02-01T08:31:22.360Z,8.90
2023-02-01T08:33:52.892Z,9.00
2023-02-01T08:36:22.187Z,9.10
2023-02-01T08:38:50.148Z,9.10
2023-02-01T08:41:20.562Z,9.30
2023-02-01T08:43:49.007Z,9.40
2023-02-01T08:46:17.640Z,9.70
2023-02-01T08:48:47.688Z,9.90
2023-02-01T08:51:16.778Z,10.00
2023-02-01T08:53:44.669Z,10.10
2023-02-01T08:56:14.479Z,10.20
2023-02-01T08:58:42.742Z,10.30
2023-02-01T09:01:14.140Z,10.30
2023-02-01T09:03:41.725Z,10.20
2023-02-01T09:06:12.900Z,10.30
2023-02-01T09:08:42.438Z,10.20
2023-02-01T09:11:16.629Z,10.20
2023-02-01T09:13:44.216Z,10.10
2023-02-01T09:16:12.213Z,10.00
2023-02-01T09:18:50.356Z,9.80
2023-02-01T09:21:28.181Z,9.80
2023-02-01T09:23:55.898Z,9.90
2023-02-01T09:26:31.537Z,9.90
2023-02-01T09:29:00.066Z,9.90
2023-02-01T09:31:27.784Z,9.80
2023-02-01T09:33:55.476Z,9.90
2023-02-01T09:36:24.609Z,10.00
2023-02-01T09:38:53.393Z,10.00
2023-02-01T09:41:42.611Z,10.10
2023-02-01T09:44:52.864Z,10.10
2023-02-01T09:47:23.489Z,9.90
2023-02-01T09:49:57.570Z,9.90
2023-02-01T09:52:43.391Z,9.80
2023-02-01T09:55:23.636Z,9.80
2023-02-01T09:57:57.786Z,9.80
2023-02-01T10:00:30.224Z,9.80
2023-02-01T10:02:58.246Z,9.70
2023-02-01T10:05:57.438Z,9.70
2023-02-01T10:08:55.035Z,9.80
2023-02-01T10:11:31.728Z,9.80
2023-02-01T10:14:28.402Z,9.80
2023-02-01T10:17:10.520Z,9.80
2023-02-01T10:19:51.418Z,9.70
2023-02-01T10:23:10.317Z,9.70
2023-02-01T10:25:42.348Z,9.80
2023-02-01T10:28:17.056Z,10.10
2023-02-01T10:30:47.526Z,10.20
2023-02-01T10:33:38.050Z,10.40
2023-02-01T10:36:18.344Z,10.60
2023-02-01T10:38:46.549Z,10.80
2023-02-01T10:41:18.988Z,10.80
2023-02-01T10:43:49.265Z,10.80
2023-02-01T10:46:18.005Z,10.90
2023-02-01T10:48:46.719Z,10.80
2023-02-01T10:51:25.662Z,10.80
2023-02-01T10:54:01.686Z,10.80
2023-02-01T10:56:30.079Z,10.80
2023-02-01T10:59:07.053Z,10.80
2023-02-01T11:01:42.760Z,10.90
2023-02-01T11:04:16.529Z,10.90
2023-02-01T11:06:47.423Z,10.80
2023-02-01T11:09:23.628Z,10.60
2023-02-01T11:11:50.995Z,10.30
2023-02-01T11:14:27.461Z,10.20
2023-02-01T11:16:58.179Z,10.20
2023-02-01T11:19:25.781Z,10.20
2023-02-01T11:21:55.237Z,10.10
2023-02-01T11:24:28.386Z,10.00
2023-02-01T11:26:57.904Z,9.80
2023-02-01T11:29:30.687Z,9.70
2023-02-01T11:32:00.773Z,9.50
2023-02-01T11:34:41.024Z,9.40
2023-02-01T11:37:23.009Z,9.40
2023-02-01T11:40:02.728Z,9.30
2023-02-01T11:42:30.830Z,9.20
2023-02-01T11:45:19.306Z,9.00
2023-02-01T11:47:47.115Z,8.90
2023-02-01T11:50:19.841Z,8.90
2023-02-01T11:53:05.986Z,8.90
2023-02-01T11:55:51.683Z,8.80
2023-02-01T11:58:40.646Z,8.70
2023-02-01T12:01:41.231Z,8.60
2023-02-01T12:04:34.481Z,8.70
2023-02-01T12:07:24.492Z,8.80
2023-02-01T12:10:05.764Z,9.00
2023-02-01T12:12:38.627Z,9.20
2023-02-01T12:15:27.535Z,9.50
2023-02-01T12:18:20.196Z,9.80
2023-02-01T12:21:12.822Z,9.90
2023-02-01T12:24:00.683Z,10.00
2023-02-01T12:27:01.673Z,10.10
2023-02-01T12:29:28.871Z,10.30
2023-02-01T12:32:05.145Z,10.40
2023-02-01T12:34:50.921Z,10.40
2023-02-01T12:37:45.574Z,10.30
2023-02-01T12:40:29.840Z,10.20
2023-02-01T12:43:06.352Z,10.10
2023-02-01T12:45:49.906Z,10.20
2023-02-01T12:48:29.601Z,10.20
2023-02-01T12:51:11.708Z,10.20
2023-02-01T12:53:57.033Z,10.20
2023-02-01T12:56:56.629Z,10.30
2023-02-01T12:59:35.821Z,10.50
2023-02-01T13:02:13.571Z,10.60
2023-02-01T13:05:20.096Z,10.50
2023-02-01T13:08:03.603Z,10.40
2023-02-01T13:10:42.448Z,10.40
2023-02-01T13:13:17.536Z,10.40
2023-02-01T13:15:57.090Z,10.30
2023-02-01T13:18:29.305Z,10.20
2023-02-01T13:21:05.256Z,10.00
2023-02-01T13:23:40.674Z,9.90
2023-02-01T13:26:09.339Z,9.90
2023-02-01T13:29:03.663Z,9.90
2023-02-01T13:31:51.542Z,9.90
2023-02-01T13:34:31.082Z,9.80
2023-02-01T13:37:32.440Z,9.70
2023-02-01T13:40:11.895Z,9.70
2023-02-01T13:42:53.058Z,9.60
2023-02-01T13:45:27.941Z,9.60
2023-02-01T13:47:58.496Z,9.40
2023-02-01T13:50:38.226Z,9.30
2023-02-01T13:53:19.947Z,9.10
2023-02-01T13:55:59.051Z,9.00
2023-02-01T13:58:39.691Z,8.90
2023-02-01T14:01:22.572Z,8.80
2023-02-01T14:03:49.916Z,8.80
2023-02-01T14:06:31.054Z,8.70
2023-02-01T14:09:13.178Z,8.70
2023-02-01T14:11:54.408Z,8.60
2023-02-01T14:14:22.054Z,8.60
2023-02-01T14:16:55.476Z,8.60
2023-02-01T14:19:28.660Z,8.60
2023-02-01T14:22:01.612Z,8.70
2023-02-01T14:24:31.368Z,8.80
2023-02-01T14:27:18.273Z,8.80
2023-02-01T14:29:59.258Z,8.80
2023-02-01T14:32:36.164Z,8.70
2023-02-01T14:35:08.954Z,8.60
2023-02-01T14:37:39.928Z,8.50
2023-02-01T14:40:26.420Z,8.50
2023-02-01T14:42:55.016Z,8.50
2023-02-01T14:45:26.100Z,8.50
2023-02-01T14:47:57.735Z,8.40
2023-02-01T14:50:41.995Z,8.30
2023-02-01T14:53:17.926Z,8.30
2023-02-01T14:56:24.003Z,8.20
2023-02-01T14:58:59.762Z,8.10
2023-02-01T15:01:34.053Z,8.00
2023-02-01T15:04:01.398Z,8.00
2023-02-01T15:06:28.853Z,8.00
2023-02-01T15:09:20.408Z,7.90
2023-02-01T15:12:07.151Z,7.90
2023-02-01T15:14:41.204Z,7.90
2023-02-01T15:17:34.765Z,7.80
2023-02-01T15:20:24.639Z,7.80
2023-02-01T15:23:18.455Z,7.70
2023-02-01T15:25:47.514Z,7.70
2023-02-01T15:28:17.014Z,7.70
2023-02-01T15:31:02.710Z,7.70
2023-02-01T15:33:32.204Z,7.70
2023-02-01T15:36:18.980Z,7.70
2023-02-01T15:38:46.841Z,7.70
2023-02-01T15:41:22.484Z,7.70
2023-02-01T15:43:55.919Z,7.70
2023-02-01T15:46:31.650Z,7.60
2023-02-01T15:48:59.381Z,7.60
2023-02-01T15:51:30.438Z,7.60
2023-02-01T15:54:09.027Z,7.60
2023-02-01T15:56:39.121Z,7.60
2023-02-01T15:59:16.465Z,7.50
2023-02-01T16:01:44.222Z,7.50
2023-02-01T16:04:31.089Z,7.50
2023-02-01T16:07:03.092Z,7.50
2023-02-01T16:09:53.687Z,7.50
2023-02-01T16:12:28.468Z,7.50
2023-02-01T16:14:55.783Z,7.50
2023-02-01T16:17:25.358Z,7.50
2023-02-01T16:19:54.552Z,7.50
2023-02-01T16:22:21.844Z,7.50
2023-02-01T16:24:49.114Z,7.40
2023-02-01T16:27:16.777Z,7.50
2023-02-01T16:29:44.195Z,7.60
2023-02-01T16:32:20.352Z,7.60
2023-02-01T16:34:48.837Z,7.70
2023-02-01T16:37:20.887Z,7.70
2023-02-01T16:39:48.342Z,7.70
2023-02-01T16:42:17.508Z,7.70
2023-02-01T16:44:45.172Z,7.70
2023-02-01T16:47:23.824Z,7.80
2023-02-01T16:49:51.515Z,7.70
2023-02-01T16:52:24.803Z,7.70
2023-02-01T16:54:52.404Z,7.80
2023-02-01T16:57:23.802Z,7.80
2023-02-01T16:59:52.126Z,7.80
2023-02-01T17:02:22.145Z,7.80
2023-02-01T17:04:51.136Z,7.80
2023-02-01T17:07:19.832Z,7.80
2023-02-01T17:09:48.869Z,7.80
2023-02-01T17:12:22.138Z,7.80
2023-02-01T17:14:49.456Z,7.80
2023-02-01T17:17:20.578Z,7.80
2023-02-01T17:19:54.342Z,7.80
2023-02-01T17:22:22.363Z,7.80
2023-02-01T17:24:50.900Z,7.80
2023-02-01T17:27:18.834Z,7.90
2023-02-01T17:29:47.127Z,7.80
2023-02-01T17:32:21.288Z,7.90
2023-02-01T17:34:49.381Z,7.80
2023-02-01T17:37:32.076Z,7.90
2023-02-01T17:39:59.580Z,7.80
2023-02-01T17:42:29.896Z,7.80
2023-02-01T17:45:00.754Z,7.80
2023-02-01T17:47:28.392Z,7.80
2023-02-01T17:49:58.905Z,7.70
2023-02-01T17:52:26.353Z,7.70
2023-02-01T17:54:54.411Z,7.70
2023-02-01T17:57:22.122Z,7.70
2023-02-01T17:59:50.158Z,7.70
2023-02-01T18:02:25.733Z,7.60
2023-02-01T18:04:54.256Z,7.60
2023-02-01T18:07:21.784Z,7.60
2023-02-01T18:09:49.103Z,7.60
2023-02-01T18:12:22.896Z,7.60
2023-02-01T18:14:50.234Z,7.60
2023-02-01T18:17:17.733Z,7.60
2023-02-01T18:19:45.064Z,7.60
2023-02-01T18:22:22.738Z,7.60
2023-02-01T18:24:50.086Z,7.60
2023-02-01T18:27:17.370Z,7.60
2023-02-01T18:29:44.678Z,7.70
2023-02-01T18:32:12.377Z,7.70
2023-02-01T18:34:40.967Z,7.70
2023-02-01T18:37:08.315Z,7.70
2023-02-01T18:39:35.605Z,7.70
2023-02-01T18:42:03.313Z,7.70
2023-02-01T18:44:30.808Z,7.80
2023-02-01T18:46:59.064Z,7.80
2023-02-01T18:49:26.494Z,7.80
2023-02-01T18:51:53.792Z,7.90
2023-02-01T18:54:21.238Z,7.90
2023-02-01T18:56:48.499Z,8.00
2023-02-01T18:59:17.412Z,8.10
2023-02-01T19:01:45.053Z,8.10
2023-02-01T19:04:21.682Z,8.20
2023-02-01T19:06:53.828Z,8.10
2023-02-01T19:09:21.468Z,8.10
2023-02-01T19:11:48.719Z,8.10
2023-02-01T19:14:17.152Z,8.10
2023-02-01T19:16:44.543Z,8.00
2023-02-01T19:19:11.976Z,8.00
2023-02-01T19:21:39.233Z,7.90
2023-02-01T19:24:07.049Z,7.90
2023-02-01T19:26:35.148Z,7.90
2023-02-01T19:29:02.649Z,8.00
2023-02-01T19:31:30.192Z,7.90
2023-02-01T19:33:58.154Z,7.90
2023-02-01T19:36:26.812Z,7.80
2023-02-01T19:38:54.536Z,7.70
2023-02-01T19:41:22.043Z,7.50
2023-02-01T19:43:49.544Z,7.50
2023-02-01T19:46:17.067Z,7.40
2023-02-01T19:48:44.796Z,7.40
2023-02-01T19:51:12.778Z,7.40
2023-02-01T19:53:40.214Z,7.40
2023-02-01T19:56:08.272Z,7.40
2023-02-01T19:58:35.535Z,7.40
2023-02-01T20:01:02.800Z,7.50
2023-02-01T20:03:30.113Z,7.50
2023-02-01T20:05:58.923Z,7.50
2023-02-01T20:08:27.047Z,7.50
2023-02-01T20:10:56.183Z,7.50
2023-02-01T20:13:23.460Z,7.60
2023-02-01T20:15:59.644Z,7.60
2023-02-01T20:18:27.958Z,7.60
2023-02-01T20:20:59.175Z,7.60
2023-02-01T20:23:27.775Z,7.60
2023-02-01T20:26:00.792Z,7.50
2023-02-01T20:28:28.947Z,7.50
2023-02-01T20:30:57.542Z,7.50
2023-02-01T20:33:27.582Z,7.60
2023-02-01T20:35:57.074Z,7.60
2023-02-01T20:38:24.966Z,7.70
2023-02-01T20:40:52.784Z,7.60
2023-02-01T20:43:20.227Z,7.60
2023-02-01T20:45:50.691Z,7.60
2023-02-01T20:48:19.357Z,7.60
2023-02-01T20:50:46.682Z,7.70
2023-02-01T20:53:25.298Z,7.70
2023-02-01T20:55:56.471Z,7.80
2023-02-01T20:58:24.349Z,7.80
2023-02-01T21:00:51.850Z,7.80
2023-02-01T21:03:19.239Z,7.90
2023-02-01T21:05:52.304Z,7.80
2023-02-01T21:08:20.147Z,7.80
2023-02-01T21:10:57.401Z,7.80
2023-02-01T21:13:26.163Z,7.80
2023-02-01T21:15:54.068Z,7.80
2023-02-01T21:18:21.842Z,7.80
2023-02-01T21:20:49.845Z,7.80
2023-02-01T21:23:18.110Z,7.80
2023-02-01T21:25:45.992Z,7.90
2023-02-01T21:28:13.663Z,7.90
2023-02-01T21:30:41.554Z,7.90
2023-02-01T21:33:09.248Z,8.00
2023-02-01T21:35:40.593Z,8.00
2023-02-01T21:38:09.697Z,8.00
2023-02-01T21:40:37.457Z,8.00
2023-02-01T21:43:05.587Z,8.00
2023-02-01T21:45:32.974Z,8.00
2023-02-01T21:48:02.291Z,8.00
2023-02-01T21:50:29.958Z,8.00
2023-02-01T21:52:57.648Z,7.90
2023-02-01T21:55:25.541Z,8.00
2023-02-01T21:57:53.860Z,8.00
2023-02-01T22:00:21.359Z,8.00
2023-02-01T22:02:48.820Z,8.00
2023-02-01T22:05:17.103Z,7.90
2023-02-01T22:07:44.603Z,7.80
2023-02-01T22:10:13.378Z,7.80
2023-02-01T22:12:40.982Z,7.70
2023-02-01T22:15:08.658Z,7.80
2023-02-01T22:17:36.641Z,7.70
2023-02-01T22:20:05.777Z,7.70
2023-02-01T22:22:33.125Z,7.70
2023-02-01T22:25:00.385Z,7.60
2023-02-01T22:28:30.164Z,7.60
2023-02-01T22:30:15.190Z,7.60
2023-02-01T22:32:42.501Z,7.60
2023-02-01T22:35:10.209Z,7.60
2023-02-01T22:37:37.628Z,7.60
2023-02-01T22:40:06.019Z,7.60
2023-02-01T22:42:33.258Z,7.60
2023-02-01T22:45:01.567Z,7.60
2023-02-01T22:47:28.993Z,7.70
2023-02-01T22:49:56.351Z,7.70
2023-02-01T22:52:23.708Z,7.70
2023-02-01T22:54:51.017Z,7.80
2023-02-01T22:57:18.393Z,7.80
2023-02-01T22:59:45.665Z,7.80
2023-02-01T23:02:13.327Z,7.90
2023-02-01T23:04:40.832Z,7.90
2023-02-01T23:07:08.443Z,8.00
2023-02-01T23:09:35.677Z,8.00
2023-02-01T23:12:03.106Z,8.10
2023-02-01T23:14:30.418Z,8.10
2023-02-01T23:16:57.799Z,8.10
2023-02-01T23:19:26.267Z,8.10
2023-02-01T23:21:53.666Z,8.00
2023-02-01T23:24:22.331Z,8.00
2023-02-01T23:26:49.993Z,7.80
2023-02-01T23:29:18.694Z,7.60
2023-02-01T23:31:46.398Z,7.50
2023-02-01T23:34:13.669Z,7.40
2023-02-01T23:36:40.928Z,7.30
2023-02-01T23:39:08.366Z,7.20
2023-02-01T23:41:35.841Z,7.10
2023-02-01T23:44:03.123Z,7.10
2023-02-01T23:46:53.587Z,7.20
2023-02-01T23:49:20.852Z,7.00
2023-02-01T23:51:53.351Z,6.60
2023-02-01T23:54:23.531Z,6.20
2023-02-01T23:56:51.043Z,5.50
2023-02-01T23:59:20.872Z,5.00
